Time;durP1;ratioP1;P1;durP2;ratioP2;P2;SDS_P1;SDS_P2;PMS_P1;PMS_P2;Temp;Humidity;BMP_temperature;BMP_pressure;BME280_temperature;BME280_humidity;BME280_pressure;Samples;Min_cycle;Max_cycle;Signal;HPM_P1;HPM_P2
2021/12/18 00:01:36;;;;;;;3.17;2.47;;;7.20;99.90;;;;;;5117358;28;20872;-83
2021/12/18 00:04:03;;;;;;;2.57;2.20;;;7.20;99.90;;;;;;5117295;28;20441;-83
2021/12/18 00:06:31;;;;;;;3.90;2.50;;;7.10;99.90;;;;;;5117055;27;20478;-83
2021/12/18 00:08:59;;;;;;;2.65;2.42;;;7.30;99.90;;;;;;5116997;28;20812;-83
2021/12/18 00:11:26;;;;;;;3.13;2.57;;;7.20;99.90;;;;;;5116462;28;20654;-83
2021/12/18 00:13:53;;;;;;;3.67;2.70;;;7.30;99.90;;;;;;5116755;28;20532;-83
2021/12/18 00:16:19;;;;;;;3.33;2.70;;;7.20;99.90;;;;;;5117085;28;20532;-83
2021/12/18 00:18:51;;;;;;;3.40;2.87;;;7.30;99.90;;;;;;5116595;28;20492;-82
2021/12/18 00:21:20;;;;;;;4.00;2.63;;;7.40;99.90;;;;;;5117021;28;20544;-82
2021/12/18 00:23:49;;;;;;;3.63;2.60;;;7.40;99.90;;;;;;5116763;28;20480;-82
2021/12/18 00:26:16;;;;;;;4.53;2.93;;;7.40;99.90;;;;;;5116743;28;20515;-85
2021/12/18 00:28:43;;;;;;;4.37;3.97;;;7.40;99.90;;;;;;5116852;28;20445;-83
2021/12/18 00:31:09;;;;;;;3.57;3.27;;;7.40;99.90;;;;;;5116652;28;20545;-82
2021/12/18 00:33:36;;;;;;;7.73;3.80;;;7.40;99.90;;;;;;5116326;28;20481;-82
2021/12/18 00:36:03;;;;;;;4.40;3.63;;;7.40;99.90;;;;;;5116241;28;20847;-82
2021/12/18 00:38:30;;;;;;;5.10;3.57;;;7.40;99.90;;;;;;5116578;28;20477;-82
2021/12/18 00:41:12;;;;;;;3.80;3.40;;;7.40;99.90;;;;;;5116415;28;20449;-83
2021/12/18 00:44:01;;;;;;;5.03;3.43;;;7.40;99.90;;;;;;5116489;28;20859;-83
2021/12/18 00:46:28;;;;;;;3.67;3.37;;;7.50;99.90;;;;;;5116801;28;20481;-81
2021/12/18 00:48:55;;;;;;;3.80;3.10;;;7.40;99.90;;;;;;5115015;28;20566;-79
2021/12/18 00:51:22;;;;;;;3.27;2.97;;;7.40;99.90;;;;;;5115759;28;20891;-80
2021/12/18 00:53:49;;;;;;;3.60;2.57;;;7.40;99.90;;;;;;5115807;27;20484;-80
2021/12/18 00:56:17;;;;;;;3.07;2.83;;;7.50;99.90;;;;;;5115925;28;20868;-80
2021/12/18 00:58:44;;;;;;;4.87;3.67;;;7.40;99.90;;;;;;5115652;28;20859;-79
2021/12/18 01:01:11;;;;;;;5.20;3.00;;;7.50;99.90;;;;;;5115708;28;20460;-80
2021/12/18 01:03:40;;;;;;;3.57;3.27;;;7.40;99.90;;;;;;5115497;28;20445;-80
2021/12/18 01:06:07;;;;;;;3.10;2.80;;;7.40;99.90;;;;;;5115208;28;20478;-79
2021/12/18 01:08:34;;;;;;;3.70;3.33;;;7.40;99.90;;;;;;5115549;28;20472;-79
2021/12/18 01:11:21;;;;;;;3.10;2.90;;;7.40;99.90;;;;;;5115475;28;20449;-80
2021/12/18 01:14:04;;;;;;;2.97;2.77;;;7.40;99.90;;;;;;5115319;28;20442;-79
2021/12/18 01:16:41;;;;;;;4.63;3.33;;;7.50;99.90;;;;;;5115615;28;20433;-80
2021/12/18 01:24:44;;;;;;;4.30;3.90;;;7.50;99.90;;;;;;5115092;28;20552;-81
2021/12/18 01:27:11;;;;;;;4.30;3.37;;;7.50;99.90;;;;;;5115187;28;20500;-81
2021/12/18 01:29:39;;;;;;;5.57;3.50;;;7.40;99.90;;;;;;5115268;28;20481;-81
2021/12/18 01:32:07;;;;;;;4.37;3.97;;;7.50;99.90;;;;;;5115487;28;20529;-81
2021/12/18 01:34:33;;;;;;;2.87;2.67;;;7.40;99.90;;;;;;5114980;28;20886;-81
2021/12/18 01:37:00;;;;;;;3.60;3.30;;;7.40;99.90;;;;;;5115495;28;20450;-81
2021/12/18 01:39:27;;;;;;;4.07;2.77;;;7.40;99.90;;;;;;5115213;27;20507;-81
2021/12/18 01:42:11;;;;;;;3.17;2.87;;;7.40;99.90;;;;;;5115065;28;20529;-81
2021/12/18 01:44:57;;;;;;;3.50;2.80;;;7.50;99.90;;;;;;5094486;28;20472;-81
2021/12/18 01:52:54;;;;;;;4.17;3.80;;;7.40;99.90;;;;;;5094768;28;20982;-82
2021/12/18 01:55:21;;;;;;;3.63;3.43;;;7.40;99.90;;;;;;5094615;28;20503;-81
2021/12/18 01:57:48;;;;;;;3.77;3.47;;;7.40;99.90;;;;;;5094570;28;20969;-80
2021/12/18 02:00:18;;;;;;;5.57;4.20;;;7.40;99.90;;;;;;5094075;28;20446;-81
2021/12/18 02:02:45;;;;;;;4.05;3.33;;;7.40;99.90;;;;;;5094661;28;20481;-81
2021/12/18 02:05:12;;;;;;;3.80;3.50;;;7.40;99.90;;;;;;5098567;27;20213;-81
2021/12/18 02:07:40;;;;;;;3.67;3.37;;;7.40;99.90;;;;;;5135488;27;20536;-81
2021/12/18 02:10:11;;;;;;;4.17;3.80;;;7.40;99.90;;;;;;5134988;27;20488;-81
2021/12/18 02:12:48;;;;;;;3.80;3.50;;;7.40;99.90;;;;;;5134855;27;20444;-81
2021/12/18 02:20:49;;;;;;;2.83;2.63;;;7.40;99.90;;;;;;5134709;27;20708;-81
2021/12/18 02:23:16;;;;;;;2.87;2.60;;;7.40;99.90;;;;;;5135000;27;20451;-81
2021/12/18 02:25:44;;;;;;;2.60;2.40;;;7.40;99.90;;;;;;5134744;27;20521;-80
2021/12/18 02:28:16;;;;;;;2.73;2.50;;;7.50;99.90;;;;;;5135041;27;20857;-80
2021/12/18 02:30:43;;;;;;;2.70;2.50;;;7.50;99.90;;;;;;5134998;27;20441;-81
2021/12/18 02:33:10;;;;;;;3.67;3.37;;;7.50;99.90;;;;;;5134725;27;20931;-81
2021/12/18 02:35:44;;;;;;;3.23;2.93;;;7.50;99.90;;;;;;5134968;27;20498;-81
2021/12/18 02:38:17;;;;;;;3.50;3.20;;;7.50;99.90;;;;;;5134671;27;20928;-81
2021/12/18 02:41:01;;;;;;;3.03;2.70;;;7.40;99.90;;;;;;5134927;27;20448;-81
2021/12/18 02:43:30;;;;;;;3.90;2.65;;;7.50;99.90;;;;;;5123718;27;20477;-81
2021/12/18 02:45:59;;;;;;;3.13;2.47;;;7.40;99.90;;;;;;5114106;28;20639;-81
2021/12/18 02:48:28;;;;;;;3.27;2.90;;;7.40;99.90;;;;;;5113928;28;20891;-81
2021/12/18 02:50:55;;;;;;;4.60;3.07;;;7.50;99.90;;;;;;5113944;28;20442;-81
2021/12/18 02:53:23;;;;;;;3.17;2.90;;;7.40;99.90;;;;;;5114170;28;20892;-81
2021/12/18 02:55:57;;;;;;;4.87;3.43;;;7.40;99.90;;;;;;5114112;28;20478;-81
2021/12/18 02:58:24;;;;;;;3.13;2.83;;;7.40;99.90;;;;;;5113962;28;20790;-81
2021/12/18 03:00:52;;;;;;;8.17;4.10;;;7.40;99.90;;;;;;5113982;28;20890;-82
2021/12/18 03:03:21;;;;;;;4.87;3.57;;;7.50;99.90;;;;;;5113886;28;20532;-82
2021/12/18 03:05:57;;;;;;;4.57;4.00;;;7.50;99.90;;;;;;5113906;28;20512;-82
2021/12/18 03:08:38;;;;;;;4.03;3.63;;;7.50;99.90;;;;;;5113884;28;20437;-82
2021/12/18 03:22:56;;;;;;;5.00;4.53;;;7.60;99.90;;;;;;5090765;27;20534;-83
2021/12/18 03:25:25;;;;;;;7.10;4.53;;;7.50;99.90;;;;;;5090741;28;20542;-83
2021/12/18 03:27:52;;;;;;;4.97;4.50;;;7.50;99.90;;;;;;5090983;28;20549;-84
2021/12/18 03:30:20;;;;;;;3.70;3.40;;;7.60;99.90;;;;;;5091262;28;20443;-84
2021/12/18 03:32:47;;;;;;;4.73;4.33;;;7.50;99.90;;;;;;5091026;28;20538;-84
2021/12/18 03:35:14;;;;;;;3.57;3.37;;;7.50;99.90;;;;;;5090951;28;20462;-84
2021/12/18 03:37:43;;;;;;;3.40;3.10;;;7.50;99.90;;;;;;5090812;28;20455;-82
2021/12/18 03:40:12;;;;;;;3.20;2.60;;;7.50;99.90;;;;;;5090665;28;20458;-81
2021/12/18 03:42:38;;;;;;;2.70;2.50;;;7.40;99.90;;;;;;5090160;28;20625;-81
2021/12/18 03:45:07;;;;;;;4.40;3.53;;;7.40;99.90;;;;;;5090294;28;20482;-82
2021/12/18 03:47:33;;;;;;;5.57;4.13;;;7.40;99.90;;;;;;5089877;28;20546;-81
2021/12/18 03:50:00;;;;;;;3.90;3.60;;;7.40;99.90;;;;;;5090258;28;20486;-82
2021/12/18 03:52:26;;;;;;;4.60;3.53;;;7.50;99.90;;;;;;5090006;28;20550;-81
2021/12/18 03:54:54;;;;;;;3.83;3.43;;;7.40;99.90;;;;;;5090021;28;20533;-81
2021/12/18 03:57:21;;;;;;;3.77;3.47;;;7.40;99.90;;;;;;5089954;28;20459;-84
2021/12/18 03:59:48;;;;;;;3.07;2.87;;;7.40;99.90;;;;;;5090404;28;20450;-84
2021/12/18 04:02:14;;;;;;;3.53;3.27;;;7.40;99.90;;;;;;5089903;28;20514;-84
2021/12/18 04:04:41;;;;;;;3.43;3.13;;;7.40;99.90;;;;;;5090028;28;20885;-83
2021/12/18 04:07:08;;;;;;;6.23;3.60;;;7.50;99.90;;;;;;5090046;28;21018;-83
2021/12/18 04:09:35;;;;;;;4.00;3.60;;;7.50;99.90;;;;;;5089857;28;20446;-81
2021/12/18 04:12:04;;;;;;;3.67;3.33;;;7.50;99.90;;;;;;5089422;28;20454;-81
2021/12/18 04:14:31;;;;;;;4.00;3.40;;;7.50;99.90;;;;;;5089736;28;20533;-81
2021/12/18 04:16:58;;;;;;;4.60;4.00;;;7.50;99.90;;;;;;5089797;28;20881;-82
2021/12/18 04:19:24;;;;;;;5.67;5.07;;;7.60;99.90;;;;;;5089729;28;20538;-82
2021/12/18 04:21:51;;;;;;;7.57;5.40;;;7.60;99.90;;;;;;5089490;28;20486;-82
2021/12/18 04:24:18;;;;;;;7.10;5.43;;;7.60;99.90;;;;;;5089440;28;20537;-82
2021/12/18 04:26:44;;;;;;;6.80;5.43;;;7.60;99.90;;;;;;5089589;28;20481;-82
2021/12/18 04:29:12;;;;;;;5.17;4.63;;;7.60;99.90;;;;;;5089620;28;20485;-82
2021/12/18 04:31:39;;;;;;;6.13;5.63;;;7.60;99.90;;;;;;5088168;28;20479;-81
2021/12/18 04:34:07;;;;;;;5.57;5.17;;;7.60;99.90;;;;;;5075323;28;20534;-80
2021/12/18 04:36:33;;;;;;;6.47;5.93;;;7.60;99.90;;;;;;5075540;28;20482;-80
2021/12/18 04:39:00;;;;;;;6.40;5.90;;;7.60;99.90;;;;;;5075619;28;20970;-80
2021/12/18 04:41:37;;;;;;;5.60;5.13;;;7.60;99.90;;;;;;5075886;28;20503;-80
2021/12/18 04:44:05;;;;;;;6.40;5.53;;;7.60;99.90;;;;;;5075653;28;20477;-84
2021/12/18 04:46:33;;;;;;;6.40;5.80;;;7.60;99.90;;;;;;5076078;28;20447;-83
2021/12/18 04:49:00;;;;;;;5.80;5.27;;;7.60;99.90;;;;;;5075760;28;20574;-84
2021/12/18 04:51:27;;;;;;;6.27;5.67;;;7.60;99.90;;;;;;5075597;28;21014;-84
2021/12/18 04:53:53;;;;;;;6.53;5.43;;;7.60;99.90;;;;;;5075597;28;20538;-84
2021/12/18 04:56:20;;;;;;;5.10;4.60;;;7.60;99.90;;;;;;5075792;28;20538;-83
2021/12/18 04:58:46;;;;;;;5.07;4.53;;;7.60;99.90;;;;;;5075593;28;20483;-82
2021/12/18 05:01:13;;;;;;;4.80;4.40;;;7.60;99.90;;;;;;5075603;28;20475;-82
2021/12/18 05:03:42;;;;;;;5.10;4.60;;;7.60;99.90;;;;;;5075287;28;20534;-82
2021/12/18 05:06:08;;;;;;;5.17;4.70;;;7.60;99.90;;;;;;5075185;28;20534;-82
2021/12/18 05:08:35;;;;;;;5.50;4.67;;;7.50;99.90;;;;;;5075285;28;20447;-82
2021/12/18 05:11:01;;;;;;;5.17;4.70;;;7.50;99.90;;;;;;5075958;28;20515;-91
2021/12/18 05:13:28;;;;;;;5.20;4.70;;;7.60;99.90;;;;;;5076074;28;20953;-89
2021/12/18 05:15:54;;;;;;;6.00;5.40;;;7.60;99.90;;;;;;5075644;28;21010;-84
2021/12/18 05:18:21;;;;;;;5.17;4.67;;;7.60;99.90;;;;;;5075548;28;20546;-85
2021/12/18 05:20:49;;;;;;;5.60;4.60;;;7.60;99.90;;;;;;5074898;28;20507;-85
2021/12/18 05:23:15;;;;;;;8.35;5.72;;;7.60;99.90;;;;;;5075154;28;20542;-83
2021/12/18 05:25:42;;;;;;;4.93;4.50;;;7.60;99.90;;;;;;5074307;28;20217;-83
2021/12/18 05:28:09;;;;;;;5.67;5.17;;;7.60;99.90;;;;;;5074764;28;20530;-83
2021/12/18 05:30:37;;;;;;;5.43;4.93;;;7.50;99.90;;;;;;5075313;28;20538;-83
2021/12/18 05:33:03;;;;;;;6.70;5.00;;;7.50;99.90;;;;;;5074936;28;20451;-81
2021/12/18 05:35:31;;;;;;;6.13;5.50;;;7.40;99.90;;;;;;5075071;28;20475;-83
2021/12/18 05:38:04;;;;;;;7.47;5.03;;;7.40;99.90;;;;;;5075377;28;20456;-86
2021/12/18 05:40:33;;;;;;;4.80;4.40;;;7.40;99.90;;;;;;5075156;28;20473;-85
2021/12/18 05:42:59;;;;;;;4.10;3.63;;;7.50;99.90;;;;;;5074861;28;21086;-83
2021/12/18 05:45:26;;;;;;;4.50;4.10;;;7.50;99.90;;;;;;5073815;28;20593;-84
2021/12/18 05:47:52;;;;;;;4.20;3.87;;;7.50;99.90;;;;;;5074545;28;20487;-81
2021/12/18 05:50:21;;;;;;;3.30;3.10;;;7.50;99.90;;;;;;5074611;28;20451;-81
2021/12/18 05:52:48;;;;;;;3.10;2.90;;;7.50;99.90;;;;;;5074467;28;20459;-83
2021/12/18 05:55:20;;;;;;;3.50;3.20;;;7.40;99.90;;;;;;5074223;28;20443;-82
2021/12/18 05:57:46;;;;;;;13.77;10.37;;;7.50;99.90;;;;;;5074068;28;20551;-82
2021/12/18 06:00:14;;;;;;;7.67;6.80;;;7.40;99.90;;;;;;5074301;28;20518;-82
2021/12/18 06:02:41;;;;;;;5.30;4.80;;;7.40;99.90;;;;;;5073938;28;20804;-82
2021/12/18 06:05:08;;;;;;;3.33;3.08;;;7.50;99.90;;;;;;5074129;28;20528;-83
2021/12/18 06:07:51;;;;;;;3.63;3.30;;;7.50;99.90;;;;;;5074397;28;20212;-84
2021/12/18 06:10:20;;;;;;;3.87;3.23;;;7.50;99.90;;;;;;5074360;28;20440;-84
2021/12/18 06:12:46;;;;;;;3.17;2.90;;;7.50;99.90;;;;;;5074038;28;20494;-82
2021/12/18 06:15:13;;;;;;;3.73;3.40;;;7.50;99.90;;;;;;5073996;28;20451;-82
2021/12/18 06:17:40;;;;;;;3.47;3.03;;;7.50;99.90;;;;;;5073888;28;20531;-84
2021/12/18 06:20:07;;;;;;;3.50;3.20;;;7.50;99.90;;;;;;5073941;28;20483;-84
2021/12/18 06:22:34;;;;;;;4.07;3.77;;;7.50;99.90;;;;;;5073938;28;20514;-83
2021/12/18 06:25:01;;;;;;;3.50;3.20;;;7.60;99.90;;;;;;5073672;28;20489;-82
2021/12/18 06:27:29;;;;;;;4.60;3.13;;;7.60;99.90;;;;;;5073388;28;20448;-82
2021/12/18 06:29:55;;;;;;;3.90;3.60;;;7.50;99.90;;;;;;5073278;28;20512;-82
2021/12/18 06:32:22;;;;;;;3.33;3.03;;;7.50;99.90;;;;;;5073924;28;20473;-82
2021/12/18 06:34:48;;;;;;;3.40;3.20;;;7.50;99.90;;;;;;5073534;28;20455;-82
2021/12/18 06:37:15;;;;;;;3.60;3.30;;;7.50;99.90;;;;;;5073382;28;20542;-82
2021/12/18 06:39:41;;;;;;;5.00;3.80;;;7.50;99.90;;;;;;5073166;28;21019;-82
2021/12/18 06:42:08;;;;;;;10.03;4.73;;;7.50;99.90;;;;;;5073094;28;20575;-82
2021/12/18 06:44:36;;;;;;;4.57;4.20;;;7.40;99.90;;;;;;5072873;28;20946;-82
2021/12/18 06:47:03;;;;;;;4.80;4.40;;;7.50;99.90;;;;;;5073057;28;20454;-82
2021/12/18 06:49:30;;;;;;;4.97;4.57;;;7.40;99.90;;;;;;5073167;28;20538;-82
2021/12/18 06:51:57;;;;;;;5.73;5.13;;;7.40;99.90;;;;;;5073361;28;20517;-82
2021/12/18 06:54:24;;;;;;;3.77;3.47;;;7.50;99.90;;;;;;5073382;28;20467;-82
2021/12/18 06:56:50;;;;;;;5.57;4.40;;;7.50;99.90;;;;;;5072923;28;20970;-82
2021/12/18 06:59:17;;;;;;;5.20;4.70;;;7.50;99.90;;;;;;5073163;28;20452;-81
2021/12/18 07:01:45;;;;;;;4.30;3.90;;;7.50;99.90;;;;;;5072809;28;20626;-82
2021/12/18 07:04:12;;;;;;;5.90;4.63;;;7.50;99.90;;;;;;5072876;28;20534;-82
2021/12/18 07:06:39;;;;;;;4.80;4.40;;;7.50;99.90;;;;;;5073036;28;20455;-83
2021/12/18 07:09:05;;;;;;;4.50;3.97;;;7.50;99.90;;;;;;5072762;28;20452;-82
2021/12/18 07:11:32;;;;;;;4.40;4.00;;;7.50;99.90;;;;;;5074079;28;20451;-84
2021/12/18 07:13:58;;;;;;;3.90;3.60;;;7.50;99.90;;;;;;5073267;28;20703;-82
2021/12/18 07:16:25;;;;;;;3.60;3.30;;;7.50;99.90;;;;;;5073107;28;20542;-83
2021/12/18 07:18:53;;;;;;;3.00;2.60;;;7.40;99.90;;;;;;5073386;28;20228;-82
2021/12/18 07:21:19;;;;;;;2.90;2.70;;;7.50;99.90;;;;;;5072785;28;20500;-82
2021/12/18 07:23:46;;;;;;;3.27;2.97;;;7.50;99.90;;;;;;5072881;28;20566;-83
2021/12/18 07:26:13;;;;;;;2.87;2.57;;;7.50;99.90;;;;;;5072598;28;20486;-83
2021/12/18 07:28:40;;;;;;;2.88;2.63;;;7.50;99.90;;;;;;5073057;28;20807;-82
2021/12/18 07:31:06;;;;;;;3.20;3.00;;;7.50;99.90;;;;;;5072387;28;20228;-83
2021/12/18 07:33:35;;;;;;;3.93;3.63;;;7.50;99.90;;;;;;5072287;28;20566;-82
2021/12/18 07:36:05;;;;;;;4.50;4.10;;;7.50;99.90;;;;;;5072643;28;20871;-82
2021/12/18 07:38:31;;;;;;;4.20;3.80;;;7.50;99.90;;;;;;5072645;28;20444;-82
2021/12/18 07:40:58;;;;;;;3.00;2.80;;;7.50;99.90;;;;;;5072551;28;20653;-82
2021/12/18 07:43:24;;;;;;;2.70;2.50;;;7.50;99.90;;;;;;5072644;28;21000;-82
2021/12/18 07:45:51;;;;;;;2.40;2.20;;;7.50;99.90;;;;;;5072644;28;20216;-82
2021/12/18 07:48:18;;;;;;;2.90;2.70;;;7.50;99.90;;;;;;5072682;28;20861;-83
2021/12/18 07:50:44;;;;;;;2.97;2.77;;;7.40;99.90;;;;;;5065933;28;20452;-82
2021/12/18 07:53:12;;;;;;;3.30;3.00;;;7.40;99.90;;;;;;5060051;28;20479;-81
2021/12/18 07:55:39;;;;;;;3.37;3.00;;;7.60;99.90;;;;;;5052256;28;20194;-81
2021/12/18 07:58:06;;;;;;;3.50;3.20;;;7.40;99.90;;;;;;5052318;28;20869;-81
2021/12/18 08:00:32;;;;;;;3.50;3.20;;;7.40;99.90;;;;;;5052002;28;20539;-83
2021/12/18 08:02:59;;;;;;;3.80;3.50;;;7.50;99.90;;;;;;5049860;28;20519;-83
2021/12/18 08:05:25;;;;;;;4.40;3.90;;;7.50;99.90;;;;;;5057850;28;20542;-83
2021/12/18 08:07:52;;;;;;;4.70;4.30;;;7.50;99.90;;;;;;5072618;28;20535;-84
2021/12/18 08:10:20;;;;;;;3.83;3.53;;;7.50;99.90;;;;;;5075592;28;20548;-83
2021/12/18 08:12:46;;;;;;;7.93;4.30;;;7.50;99.90;;;;;;5075318;28;20479;-83
2021/12/18 08:15:13;;;;;;;3.60;3.30;;;7.60;99.90;;;;;;5075500;28;20541;-84
2021/12/18 08:17:39;;;;;;;4.93;3.60;;;7.60;99.90;;;;;;5075891;28;20557;-81
2021/12/18 08:20:08;;;;;;;4.73;4.30;;;7.60;99.90;;;;;;5075445;28;20497;-81
2021/12/18 08:22:35;;;;;;;4.37;3.97;;;7.60;99.90;;;;;;5076008;28;20575;-81
2021/12/18 08:25:02;;;;;;;2.80;2.60;;;7.60;99.90;;;;;;5075641;28;20490;-82
2021/12/18 08:27:30;;;;;;;3.10;2.90;;;7.60;99.90;;;;;;5075906;28;20652;-83
2021/12/18 08:29:56;;;;;;;3.17;2.40;;;7.60;99.90;;;;;;5075433;28;20933;-84
2021/12/18 08:32:23;;;;;;;2.83;2.63;;;7.70;99.90;;;;;;5075588;28;20482;-81
2021/12/18 08:34:50;;;;;;;2.30;2.10;;;7.60;99.90;;;;;;5075817;28;20555;-83
2021/12/18 08:37:17;;;;;;;2.17;2.07;;;7.60;99.90;;;;;;5075878;28;20463;-82
2021/12/18 08:39:44;;;;;;;2.80;2.60;;;7.60;99.90;;;;;;5075677;28;20459;-82
2021/12/18 08:42:10;;;;;;;2.70;2.50;;;7.60;99.90;;;;;;5075343;28;20827;-82
2021/12/18 08:44:38;;;;;;;2.37;2.13;;;7.60;99.90;;;;;;5055403;28;20511;-83
2021/12/18 08:47:05;;;;;;;2.00;1.90;;;7.50;99.90;;;;;;5055474;28;20986;-82
2021/12/18 08:49:32;;;;;;;3.03;2.60;;;7.50;99.90;;;;;;5055472;28;20544;-83
2021/12/18 08:51:58;;;;;;;2.53;2.33;;;7.60;99.90;;;;;;5055008;28;20773;-82
2021/12/18 08:54:26;;;;;;;2.63;2.43;;;7.60;99.90;;;;;;5054962;28;20932;-82
2021/12/18 08:56:52;;;;;;;3.07;2.60;;;7.60;99.90;;;;;;5068008;28;20478;-82
2021/12/18 08:59:19;;;;;;;2.53;2.33;;;7.70;99.90;;;;;;5075237;28;20479;-82
2021/12/18 09:01:47;;;;;;;3.92;2.72;;;7.70;99.90;;;;;;5074934;28;20490;-82
2021/12/18 09:04:13;;;;;;;2.83;2.55;;;7.70;99.90;;;;;;5074438;28;20216;-83
2021/12/18 09:06:40;;;;;;;2.27;2.10;;;7.70;99.90;;;;;;5075264;28;20189;-82
2021/12/18 09:09:07;;;;;;;2.20;2.00;;;7.70;99.90;;;;;;5075244;28;20939;-82
2021/12/18 09:11:33;;;;;;;1.77;1.67;;;7.70;99.90;;;;;;5075060;28;20462;-83
2021/12/18 09:14:02;;;;;;;2.10;1.93;;;7.70;99.90;;;;;;5074577;28;20882;-83
2021/12/18 09:16:29;;;;;;;2.67;2.13;;;7.80;99.90;;;;;;5075191;28;20487;-82
2021/12/18 09:18:57;;;;;;;2.50;2.30;;;7.80;99.90;;;;;;5074683;28;20452;-82
2021/12/18 09:21:23;;;;;;;2.50;2.27;;;7.80;99.90;;;;;;5074639;28;20986;-82
2021/12/18 09:23:50;;;;;;;2.23;2.03;;;7.80;99.90;;;;;;5074921;28;20525;-82
2021/12/18 09:26:16;;;;;;;2.07;1.87;;;7.90;99.90;;;;;;5073321;28;20466;-82
2021/12/18 09:28:43;;;;;;;2.07;1.90;;;7.90;99.90;;;;;;5074670;28;20451;-83
2021/12/18 09:31:09;;;;;;;3.13;2.37;;;7.90;99.90;;;;;;5069583;28;21013;-82
2021/12/18 09:33:36;;;;;;;2.30;2.20;;;7.90;99.90;;;;;;5063364;28;20543;-82
2021/12/18 09:36:05;;;;;;;3.87;2.50;;;7.90;99.90;;;;;;5068542;28;20448;-83
2021/12/18 09:38:31;;;;;;;3.07;2.77;;;7.90;99.90;;;;;;5074444;28;20483;-82
2021/12/18 09:40:59;;;;;;;3.10;2.73;;;8.00;99.90;;;;;;5055624;28;20445;-83
2021/12/18 09:43:26;;;;;;;4.93;3.20;;;8.00;99.90;;;;;;5064313;28;20471;-83
2021/12/18 09:45:53;;;;;;;3.53;2.97;;;8.00;99.90;;;;;;5074524;28;20483;-83
2021/12/18 09:48:20;;;;;;;2.97;2.63;;;8.00;99.90;;;;;;5073627;28;20493;-83
2021/12/18 09:50:55;;;;;;;3.33;3.03;;;8.10;99.90;;;;;;5073761;28;20455;-82
2021/12/18 09:53:23;;;;;;;2.77;2.57;;;8.10;99.90;;;;;;5071658;28;20443;-83
2021/12/18 09:55:50;;;;;;;4.10;3.13;;;8.20;99.90;;;;;;5073975;28;20452;-83
2021/12/18 09:58:16;;;;;;;3.50;3.20;;;8.20;99.90;;;;;;5074018;28;20534;-83
2021/12/18 10:00:43;;;;;;;3.10;2.90;;;8.20;99.90;;;;;;5073900;28;20460;-82
2021/12/18 10:03:10;;;;;;;4.73;2.57;;;8.10;99.90;;;;;;5073786;28;20521;-82
2021/12/18 10:05:38;;;;;;;3.40;3.07;;;8.10;99.90;;;;;;5072454;28;20538;-82
2021/12/18 10:08:11;;;;;;;3.40;2.77;;;8.10;99.90;;;;;;5073607;28;20581;-82
2021/12/18 10:10:57;;;;;;;5.00;2.90;;;8.20;99.90;;;;;;5073257;28;20470;-81
2021/12/18 10:13:23;;;;;;;3.87;3.53;;;8.10;99.90;;;;;;5073873;28;20451;-82
2021/12/18 10:16:08;;;;;;;4.57;3.40;;;8.00;99.90;;;;;;5073404;28;20539;-82
2021/12/18 10:18:35;;;;;;;4.80;4.20;;;8.00;99.90;;;;;;5073180;28;20443;-81
2021/12/18 10:21:09;;;;;;;4.20;3.80;;;8.00;99.90;;;;;;5073611;28;20558;-82
2021/12/18 10:23:36;;;;;;;5.37;3.27;;;8.00;99.90;;;;;;5073339;28;20574;-82
2021/12/18 10:26:03;;;;;;;5.63;3.70;;;8.00;99.90;;;;;;5075784;28;20531;-93
2021/12/18 10:28:44;;;;;;;4.33;3.17;;;8.00;99.90;;;;;;5066931;28;20542;-92
2021/12/18 10:31:11;;;;;;;4.30;3.70;;;8.10;99.90;;;;;;5072500;28;20881;-93
2021/12/18 10:33:37;;;;;;;4.17;3.87;;;8.20;99.90;;;;;;5072975;28;20513;-86
2021/12/18 10:36:05;;;;;;;5.37;4.13;;;8.20;99.90;;;;;;5073142;28;20501;-86
2021/12/18 10:38:45;;;;;;;3.97;3.67;;;8.20;99.90;;;;;;5073621;28;20479;-84
2021/12/18 10:41:25;;;;;;;4.60;4.20;;;8.20;99.90;;;;;;5074393;28;20448;-91
2021/12/18 10:43:58;;;;;;;5.40;4.87;;;8.20;99.90;;;;;;5077169;28;20992;-90
2021/12/18 10:46:25;;;;;;;4.60;4.10;;;8.20;99.90;;;;;;5081315;28;20850;-89
2021/12/18 10:49:00;;;;;;;4.87;4.40;;;8.20;99.90;;;;;;5087050;28;20447;-93
2021/12/18 10:51:29;;;;;;;4.63;3.57;;;8.20;99.90;;;;;;5075580;28;20443;-92
2021/12/18 10:54:00;;;;;;;3.87;3.50;;;8.20;99.90;;;;;;5072776;28;20808;-93
2021/12/18 10:56:37;;;;;;;3.80;3.50;;;8.20;99.90;;;;;;5067930;28;20452;-94
2021/12/18 10:59:06;;;;;;;3.40;3.10;;;8.30;99.90;;;;;;5073465;28;20450;-93
2021/12/18 11:01:36;;;;;;;6.70;3.63;;;8.30;99.90;;;;;;5066495;28;20459;-93
2021/12/18 11:04:03;;;;;;;3.20;2.90;;;8.30;99.90;;;;;;5069921;28;20484;-93
2021/12/18 11:06:32;;;;;;;3.33;2.87;;;8.30;99.90;;;;;;5069247;28;20549;-93
2021/12/18 11:09:07;;;;;;;2.73;2.53;;;8.30;99.90;;;;;;5071047;28;20904;-94
2021/12/18 11:14:39;;;;;;;2.80;2.47;;;8.30;99.90;;;;;;5056826;28;20585;-92
2021/12/18 11:17:09;;;;;;;3.20;1.97;;;8.40;99.90;;;;;;5072815;28;20869;-92
2021/12/18 11:19:37;;;;;;;2.53;2.00;;;8.50;99.90;;;;;;5072685;28;20489;-91
2021/12/18 11:22:06;;;;;;;2.27;2.07;;;8.50;99.90;;;;;;5072293;28;20502;-93
2021/12/18 11:24:36;;;;;;;9.60;2.57;;;8.60;99.90;;;;;;5072597;28;20467;-92
2021/12/18 11:27:07;;;;;;;2.10;2.00;;;8.60;99.90;;;;;;5072467;28;20443;-89
2021/12/18 11:29:41;;;;;;;3.33;1.90;;;8.70;99.90;;;;;;5072190;28;20475;-88
2021/12/18 11:32:12;;;;;;;2.00;1.80;;;8.70;99.90;;;;;;5072259;28;20942;-89
2021/12/18 11:34:40;;;;;;;1.97;1.77;;;8.80;99.90;;;;;;5063736;28;20447;-89
2021/12/18 11:37:09;;;;;;;2.87;2.50;;;8.80;99.90;;;;;;5070801;28;20479;-88
2021/12/18 11:39:38;;;;;;;2.73;2.10;;;8.80;99.90;;;;;;5071230;28;20451;-85
2021/12/18 11:42:07;;;;;;;3.37;2.53;;;8.80;99.90;;;;;;5073290;28;20501;-84
2021/12/18 11:44:37;;;;;;;2.20;1.73;;;8.80;99.90;;;;;;5074321;28;20570;-84
2021/12/18 11:47:24;;;;;;;2.20;1.83;;;8.70;99.90;;;;;;5072833;28;20443;-81
2021/12/18 11:49:52;;;;;;;2.07;1.90;;;8.70;99.90;;;;;;5076015;28;20534;-82
2021/12/18 11:52:18;;;;;;;2.57;2.37;;;8.70;99.90;;;;;;5076039;28;20844;-81
2021/12/18 11:54:50;;;;;;;2.60;1.80;;;8.60;99.90;;;;;;5075734;28;20475;-82
2021/12/18 11:57:38;;;;;;;3.90;2.13;;;8.60;99.90;;;;;;5076274;28;20445;-82
2021/12/18 12:00:08;;;;;;;2.10;1.90;;;8.60;99.90;;;;;;5060142;28;20523;-82
2021/12/18 12:02:47;;;;;;;2.20;1.77;;;8.50;99.90;;;;;;5075889;28;20526;-82
2021/12/18 12:05:15;;;;;;;2.10;1.80;;;8.50;99.90;;;;;;5076333;28;20475;-83
2021/12/18 12:07:44;;;;;;;1.53;1.40;;;8.50;99.90;;;;;;5074576;28;20443;-82
2021/12/18 12:10:21;;;;;;;2.27;1.43;;;8.40;99.90;;;;;;5076065;28;20455;-83
2021/12/18 12:12:53;;;;;;;4.20;1.50;;;8.40;99.90;;;;;;5075645;28;20533;-83
2021/12/18 12:15:21;;;;;;;1.70;1.30;;;8.40;99.90;;;;;;5069633;28;20506;-83
2021/12/18 12:17:55;;;;;;;2.17;1.60;;;8.40;99.90;;;;;;5074770;28;20496;-83
2021/12/18 12:20:39;;;;;;;5.17;1.70;;;8.50;99.90;;;;;;5075997;28;21059;-83
2021/12/18 12:23:06;;;;;;;1.57;1.47;;;8.40;99.90;;;;;;5074041;28;20509;-83
2021/12/18 12:25:42;;;;;;;1.83;1.30;;;8.40;99.90;;;;;;5075560;28;20493;-83
2021/12/18 12:28:12;;;;;;;2.00;1.50;;;8.40;99.90;;;;;;5060016;28;21030;-83
2021/12/18 12:30:44;;;;;;;1.83;1.70;;;8.50;99.90;;;;;;5075882;28;20530;-83
2021/12/18 12:33:20;;;;;;;1.23;1.13;;;8.50;99.90;;;;;;5075226;28;20534;-83
2021/12/18 12:35:58;;;;;;;1.53;1.30;;;8.50;99.90;;;;;;5075337;28;20447;-83
2021/12/18 12:38:30;;;;;;;1.90;1.30;;;8.60;99.90;;;;;;5074627;28;20573;-82
2021/12/18 12:40:57;;;;;;;1.67;1.30;;;8.60;99.90;;;;;;5073737;28;20479;-82
2021/12/18 12:43:29;;;;;;;1.80;1.70;;;8.60;99.90;;;;;;5074552;28;20491;-82
2021/12/18 12:46:05;;;;;;;1.63;1.47;;;8.70;99.90;;;;;;5075046;28;20447;-82
2021/12/18 12:48:59;;;;;;;1.63;1.53;;;8.70;99.90;;;;;;5074279;28;20953;-82
2021/12/18 12:51:26;;;;;;;1.40;1.30;;;8.70;99.90;;;;;;5072695;28;20473;-84
2021/12/18 12:53:54;;;;;;;2.23;1.43;;;8.70;99.90;;;;;;5073979;28;20443;-82
2021/12/18 12:56:23;;;;;;;1.33;1.23;;;8.80;99.90;;;;;;5074211;28;20527;-83
2021/12/18 12:59:24;;;;;;;3.30;1.30;;;8.80;99.90;;;;;;5074527;28;21018;-82
2021/12/18 13:01:52;;;;;;;1.40;1.10;;;8.80;99.90;;;;;;5073409;28;20439;-82
2021/12/18 13:04:18;;;;;;;1.83;1.53;;;8.70;99.90;;;;;;5074538;28;20507;-83
2021/12/18 13:06:46;;;;;;;3.07;1.73;;;8.70;99.90;;;;;;5074246;28;20950;-82
2021/12/18 13:09:13;;;;;;;2.90;1.60;;;8.80;99.90;;;;;;5074052;28;20474;-82
2021/12/18 13:11:40;;;;;;;3.00;1.30;;;8.80;99.90;;;;;;5073945;28;20547;-83
2021/12/18 13:14:13;;;;;;;1.40;1.30;;;8.80;99.90;;;;;;5073936;28;20566;-83
2021/12/18 13:16:41;;;;;;;3.00;1.17;;;8.80;99.90;;;;;;5072299;28;20471;-83
2021/12/18 13:19:07;;;;;;;1.73;1.43;;;8.80;99.90;;;;;;5073827;28;20534;-83
2021/12/18 13:21:39;;;;;;;1.80;1.03;;;8.70;99.90;;;;;;5074748;28;20558;-85
2021/12/18 13:24:07;;;;;;;1.50;1.40;;;8.80;99.90;;;;;;5058506;28;20518;-84
2021/12/18 13:26:37;;;;;;;2.20;1.60;;;8.80;99.90;;;;;;5077104;28;20479;-86
2021/12/18 13:29:09;;;;;;;1.67;1.53;;;8.80;99.90;;;;;;5076475;28;20506;-88
2021/12/18 13:31:43;;;;;;;1.40;1.30;;;8.80;99.90;;;;;;5075009;28;20939;-86
2021/12/18 13:34:14;;;;;;;3.00;1.30;;;8.90;99.90;;;;;;5059527;28;20842;-86
2021/12/18 13:36:45;;;;;;;1.30;1.20;;;8.80;99.90;;;;;;5074676;28;20468;-86
2021/12/18 13:39:14;;;;;;;1.90;1.70;;;8.80;99.90;;;;;;5074563;28;20443;-87